Погода Шомбрукна 2 недели

Варминско-Мазурское воеводство, Польша

18 - 31 мая
  • 18мая
    Сегодня
    +10°
    +24°
    Ясно и безоблачно
    ВремяПогодаТемператураВлажностьДавлениеВетер, м/сВероятность осадков
    02:00Ясно и безоблачно+12°C54 %750 мм1.8 м/с2 %
    05:00Ясно и безоблачно+10°C59 %749 мм1.6 м/с2 %
    08:00Ясно и безоблачно+16°C50 %750 мм2.5 м/с2 %
    11:00Ясно и безоблачно+22°C35 %749 мм4.2 м/с2 %
    14:00Ясно и безоблачно+24°C30 %749 мм4.6 м/с2 %
    17:00Ясно и безоблачно+24°C30 %748 мм4.1 м/с2 %
    20:00Ясно и безоблачно+21°C41 %747 мм2.7 м/с2 %
    23:00Ясно и безоблачно+16°C49 %747 мм1.7 м/с2 %
  • 19мая
    Воскресенье
    +10°
    +24°
    Облачно с прояснениями
    ВремяПогодаТемператураВлажностьДавлениеВетер, м/сВероятность осадков
    02:00Ясно и безоблачно+12°C60 %747 мм1.4 м/с2 %
    05:00Ясно и безоблачно+11°C71 %747 мм1.3 м/с2 %
    08:00Ясно и безоблачно+17°C59 %747 мм2.0 м/с2 %
    11:00Облачно с прояснениями+22°C38 %747 мм3.8 м/с7 %
    14:00Облачно с прояснениями+23°C33 %746 мм3.7 м/с12 %
    17:00Облачно с прояснениями+22°C29 %744 мм3.1 м/с15 %
    20:00Практически безоблачно+21°C42 %745 мм2.2 м/с12 %
    23:00Практически безоблачно+15°C62 %745 мм1.4 м/с7 %
  • 20мая
    Понедельник
    +12°
    +24°
    Облачно с прояснениями
    ВремяПогодаТемператураВлажностьДавлениеВетер, м/сВероятность осадков
    02:00Небольшая облачность+12°C76 %745 мм1.0 м/с4 %
    05:00Облачно с прояснениями+11°C87 %745 мм0.9 м/с9 %
    08:00Облачно с прояснениями+17°C66 %746 мм1.5 м/с16 %
    11:00Облачно с прояснениями+22°C45 %747 мм2.2 м/с36 %
    14:00Облачно с прояснениями+22°C42 %746 мм2.4 м/с42 %
    17:00Небольшая облачность, возможен дождь с грозой+22°C52 %746 мм2.8 м/с61 %
    20:00Облачно с прояснениями+21°C57 %747 мм2.0 м/с29 %
    23:00Ясно и безоблачно+16°C76 %748 мм1.6 м/с2 %
  • 21мая
    Вторник
    +13°
    +26°
    Практически безоблачно
    ВремяПогодаТемператураВлажностьДавлениеВетер, м/сВероятность осадков
    02:00Облачно с прояснениями+14°C92 %748 мм1.3 м/с2 %
    05:00Практически безоблачно+13°C95 %748 мм1.6 м/с2 %
    08:00Ясно и безоблачно+17°C74 %749 мм2.2 м/с2 %
    11:00Практически безоблачно+22°C53 %749 мм3.5 м/с21 %
    14:00Практически безоблачно+25°C42 %748 мм3.7 м/с22 %
    17:00Практически безоблачно+25°C40 %747 мм3.5 м/с31 %
    20:00Практически безоблачно+23°C56 %747 мм3.5 м/с8 %
    23:00Ясно и безоблачно+19°C69 %747 мм2.3 м/с2 %
  • 22мая
    Среда
    +14°
    +26°
    Ясно и безоблачно
    ВремяПогодаТемператураВлажностьДавлениеВетер, м/сВероятность осадков
    02:00Ясно и безоблачно+15°C85 %747 мм2.4 м/с2 %
    05:00Ясно и безоблачно+13°C93 %747 мм2.3 м/с2 %
    08:00Ясно и безоблачно+18°C75 %747 мм3.4 м/с2 %
    11:00Ясно и безоблачно+23°C53 %747 мм4.7 м/с12 %
    14:00Ясно и безоблачно+25°C47 %746 мм5.2 м/с17 %
    17:00Практически безоблачно+25°C48 %745 мм4.9 м/с22 %
    20:00Ясно и безоблачно+22°C63 %746 мм4.4 м/с10 %
    23:00Ясно и безоблачно+18°C75 %747 мм3.2 м/с4 %
Мы используем cookies
Соглашаюсь